Time;durP1;ratioP1;P1;durP2;ratioP2;P2;SDS_P1;SDS_P2;PMS_P1;PMS_P2;Temp;Humidity;BMP_temperature;BMP_pressure;BME280_temperature;BME280_humidity;BME280_pressure;Samples;Min_cycle;Max_cycle;Signal;HPM_P1;HPM_P2
2021/11/16 00:07:23;;;;;;;55.53;20.13;;;;;;;;;;6258972;22;20060;-89
2021/11/16 00:19:15;;;;;;;60.20;21.55;;;;;;;;;;6267870;22;20027;-87
2021/11/16 00:30:36;;;;;;;58.03;21.02;;;;;;;;;;6281886;22;20027;-87
2021/11/16 00:33:40;;;;;;;52.92;19.00;;;;;;;;;;6271082;22;20007;-90
2021/11/16 00:39:14;;;;;;;52.08;18.92;;;;;;;;;;6277516;22;20034;-89
2021/11/16 00:47:36;;;;;;;54.25;20.42;;;;;;;;;;6258259;22;20111;-87
2021/11/16 00:50:15;;;;;;;62.92;21.70;;;;;;;;;;6250137;22;19996;-89
2021/11/16 00:53:17;;;;;;;55.50;19.98;;;;;;;;;;6202691;23;20003;-86
2021/11/16 00:58:27;;;;;;;58.60;20.77;;;;;;;;;;6266900;22;19900;-89
2021/11/16 01:07:06;;;;;;;51.60;20.08;;;;;;;;;;6274207;22;20011;-89
2021/11/16 01:13:17;;;;;;;44.92;17.20;;;;;;;;;;6250818;22;20031;-89
2021/11/16 01:16:16;;;;;;;53.50;20.35;;;;;;;;;;6245429;23;20004;-87
2021/11/16 01:19:14;;;;;;;50.67;19.25;;;;;;;;;;6244408;23;20008;-90
2021/11/16 01:22:25;;;;;;;49.13;19.25;;;;;;;;;;6260260;22;20047;-90
2021/11/16 01:34:02;;;;;;;51.90;18.73;;;;;;;;;;6245524;22;20031;-87
2021/11/16 01:36:50;;;;;;;46.20;17.33;;;;;;;;;;6253297;22;20023;-89
2021/11/16 01:39:41;;;;;;;54.30;17.65;;;;;;;;;;6273957;22;20003;-91
2021/11/16 01:56:23;;;;;;;53.65;20.10;;;;;;;;;;6276250;22;20012;-88
2021/11/16 01:59:05;;;;;;;47.92;18.33;;;;;;;;;;6154919;23;20058;-88
2021/11/16 02:04:40;;;;;;;44.13;18.30;;;;;;;;;;6275645;22;20012;-89
2021/11/16 02:07:39;;;;;;;40.95;16.98;;;;;;;;;;6270265;22;20008;-88
2021/11/16 02:10:47;;;;;;;44.08;17.25;;;;;;;;;;6274623;22;19996;-87
2021/11/16 02:13:58;;;;;;;47.33;17.23;;;;;;;;;;6274565;22;19999;-89
2021/11/16 02:19:26;;;;;;;39.90;17.98;;;;;;;;;;6275731;22;20026;-88
2021/11/16 02:35:36;;;;;;;38.83;18.25;;;;;;;;;;6253457;22;20268;-89
2021/11/16 02:38:30;;;;;;;46.72;17.83;;;;;;;;;;6244805;23;19996;-91
2021/11/16 03:10:06;;;;;;;51.22;18.05;;;;;;;;;;6272230;22;20011;-90
2021/11/16 03:18:36;;;;;;;42.25;18.20;;;;;;;;;;6281654;22;20479;-88
2021/11/16 03:21:58;;;;;;;50.85;18.33;;;;;;;;;;6296099;22;20000;-87
2021/11/16 03:24:46;;;;;;;52.00;19.60;;;;;;;;;;6234968;23;20001;-89
2021/11/16 03:27:18;;;;;;;42.45;17.02;;;;;;;;;;6260387;22;20043;-88
2021/11/16 03:33:20;;;;;;;46.45;17.48;;;;;;;;;;6203888;22;20008;-88
2021/11/16 03:36:17;;;;;;;42.15;17.73;;;;;;;;;;6196494;23;20004;-88
2021/11/16 03:39:07;;;;;;;41.75;17.23;;;;;;;;;;6243036;23;20040;-87
2021/11/16 03:49:44;;;;;;;48.80;18.23;;;;;;;;;;6236250;22;20019;-86
2021/11/16 03:53:03;;;;;;;40.33;16.58;;;;;;;;;;6300216;22;20016;-87
2021/11/16 03:56:12;;;;;;;37.22;15.77;;;;;;;;;;6302489;22;20026;-89
2021/11/16 03:59:11;;;;;;;43.50;17.15;;;;;;;;;;6301200;22;20049;-87
2021/11/16 04:02:21;;;;;;;34.20;15.18;;;;;;;;;;6300037;22;19999;-87
2021/11/16 04:13:25;;;;;;;38.80;16.98;;;;;;;;;;6238915;22;20043;-89
2021/11/16 04:16:02;;;;;;;43.97;18.38;;;;;;;;;;6273198;22;20000;-90
2021/11/16 04:18:52;;;;;;;43.42;17.15;;;;;;;;;;6299230;22;19992;-90
2021/11/16 04:21:21;;;;;;;39.58;16.67;;;;;;;;;;6266720;22;20011;-85
2021/11/16 04:26:43;;;;;;;46.60;17.85;;;;;;;;;;6224131;22;20020;-88
2021/11/16 04:29:28;;;;;;;41.83;17.05;;;;;;;;;;6243490;23;20052;-89
2021/11/16 04:32:44;;;;;;;37.90;14.75;;;;;;;;;;6261752;22;20000;-90
2021/11/16 04:35:52;;;;;;;38.90;17.02;;;;;;;;;;6276130;22;20000;-94
2021/11/16 04:41:38;;;;;;;45.90;16.88;;;;;;;;;;6247846;22;20015;-91
2021/11/16 04:47:47;;;;;;;33.17;14.70;;;;;;;;;;6286348;22;20046;-88
2021/11/16 05:08:12;;;;;;;42.08;17.45;;;;;;;;;;6301151;22;20019;-90
2021/11/16 05:13:34;;;;;;;35.53;16.83;;;;;;;;;;6304317;22;20004;-87
2021/11/16 05:19:36;;;;;;;37.03;16.25;;;;;;;;;;6254094;22;20011;-91
2021/11/16 05:22:46;;;;;;;33.08;15.98;;;;;;;;;;6224464;22;20035;-87
2021/11/16 05:38:49;;;;;;;33.75;14.25;;;;;;;;;;6297129;22;20024;-85
2021/11/16 05:41:31;;;;;;;41.17;15.18;;;;;;;;;;6276433;22;20015;-86
2021/11/16 05:43:58;;;;;;;32.95;13.98;;;;;;;;;;6277185;22;19998;-86
2021/11/16 05:46:49;;;;;;;40.33;16.35;;;;;;;;;;6295977;22;20004;-86
2021/11/16 05:49:31;;;;;;;30.58;13.10;;;;;;;;;;6247489;22;20020;-86
2021/11/16 05:52:35;;;;;;;44.97;15.88;;;;;;;;;;6248649;22;20031;-88
2021/11/16 05:55:39;;;;;;;32.85;13.18;;;;;;;;;;6238601;22;20032;-86
2021/11/16 05:58:38;;;;;;;34.47;13.15;;;;;;;;;;6095342;23;20015;-87
2021/11/16 06:01:22;;;;;;;28.00;14.02;;;;;;;;;;6068447;23;20067;-89
2021/11/16 06:14:12;;;;;;;21.67;10.60;;;;;;;;;;6223063;22;20011;-90
2021/11/16 06:16:41;;;;;;;34.47;14.13;;;;;;;;;;6246023;22;20008;-89
2021/11/16 06:19:35;;;;;;;28.42;12.95;;;;;;;;;;6273792;22;20034;-92
2021/11/16 06:22:27;;;;;;;31.77;12.38;;;;;;;;;;6286100;22;20014;-93
2021/11/16 06:25:04;;;;;;;43.50;14.02;;;;;;;;;;6274888;22;20023;-90
2021/11/16 06:27:32;;;;;;;33.60;14.10;;;;;;;;;;6276197;22;20023;-91
2021/11/16 06:30:24;;;;;;;33.83;14.70;;;;;;;;;;6299973;22;20329;-93
2021/11/16 06:32:54;;;;;;;40.88;16.52;;;;;;;;;;6263245;22;20043;-96
2021/11/16 06:35:40;;;;;;;34.35;15.18;;;;;;;;;;6259660;23;20018;-94
2021/11/16 06:38:14;;;;;;;34.47;14.38;;;;;;;;;;6259959;23;20008;-96
2021/11/16 06:40:47;;;;;;;33.72;14.68;;;;;;;;;;6262028;23;20008;-94
2021/11/16 06:46:46;;;;;;;;;;;;;;;;;;;;;
2021/11/16 06:49:50;;;;;;;38.30;16.90;;;;;;;;;;6258679;22;20013;-94
2021/11/16 06:52:29;;;;;;;;;;;;;;;;;;;;;
2021/11/16 07:33:25;;;;;;;39.45;18.67;;;;;;;;;;6143321;23;20034;-95
2021/11/16 07:36:16;;;;;;;34.30;18.33;;;;;;;;;;6134797;23;20443;-96
2021/11/16 07:38:51;;;;;;;35.28;17.95;;;;;;;;;;6098617;23;20017;-94
2021/11/16 07:41:36;;;;;;;31.25;17.65;;;;;;;;;;6136006;23;20010;-95
2021/11/16 07:44:51;;;;;;;33.50;18.67;;;;;;;;;;6181491;23;20036;-95
2021/11/16 07:53:50;;;;;;;39.03;20.03;;;;;;;;;;6231199;22;20857;31
2021/11/16 08:11:19;;;;;;;42.88;20.75;;;;;;;;;;6244347;23;20087;-92
2021/11/16 08:14:18;;;;;;;39.70;20.80;;;;;;;;;;6234960;23;20443;-92
2021/11/16 08:17:17;;;;;;;37.20;19.88;;;;;;;;;;6208385;23;20008;-92
2021/11/16 09:05:23;;;;;;;34.83;18.88;;;;;;;;;;6222388;22;20008;-93
2021/11/16 09:08:44;;;;;;;39.47;20.17;;;;;;;;;;6233312;22;20008;-93
2021/11/16 10:39:42;;;;;;;27.75;13.88;;;;;;;;;;6235537;22;20032;-94
2021/11/16 10:42:33;;;;;;;30.13;13.93;;;;;;;;;;6240308;23;20005;-96
2021/11/16 10:57:55;;;;;;;;;;;;;;;;;;;;;
2021/11/16 11:12:27;;;;;;;37.58;15.82;;;;;;;;;;6211678;22;20401;-96
2021/11/16 11:14:55;;;;;;;31.38;14.77;;;;;;;;;;6213313;23;20063;-95
2021/11/16 11:20:11;;;;;;;31.27;14.88;;;;;;;;;;6241289;22;20036;-96
2021/11/16 11:22:45;;;;;;;32.45;14.85;;;;;;;;;;6232375;23;20028;-96
2021/11/16 11:25:49;;;;;;;29.75;15.43;;;;;;;;;;6236278;23;19993;-96
2021/11/16 11:28:39;;;;;;;32.28;14.52;;;;;;;;;;6228118;22;20025;-96
2021/11/16 11:33:58;;;;;;;29.33;13.87;;;;;;;;;;6238612;23;20021;-96
2021/11/16 11:39:37;;;;;;;35.92;18.13;;;;;;;;;;6268658;22;20015;-96
2021/11/16 11:42:13;;;;;;;35.63;18.55;;;;;;;;;;6267706;22;20464;-96
2021/11/16 11:47:32;;;;;;;37.35;20.05;;;;;;;;;;6238320;22;20044;-96
2021/11/16 11:50:22;;;;;;;36.35;20.52;;;;;;;;;;6212115;23;20008;-96
2021/11/16 11:53:21;;;;;;;36.25;19.38;;;;;;;;;;6236496;23;20005;-96
2021/11/16 11:55:59;;;;;;;40.03;20.17;;;;;;;;;;6211274;23;20103;-96
2021/11/16 11:58:28;;;;;;;35.08;19.85;;;;;;;;;;6212000;23;19988;-96
2021/11/16 12:00:56;;;;;;;35.30;18.05;;;;;;;;;;6210776;23;19985;-96
2021/11/16 12:03:33;;;;;;;37.15;19.52;;;;;;;;;;6212959;22;20036;-95
2021/11/16 12:08:47;;;;;;;34.55;19.27;;;;;;;;;;6267005;22;20024;-96
2021/11/16 12:14:10;;;;;;;35.42;17.83;;;;;;;;;;6233937;22;20032;-96
2021/11/16 12:17:00;;;;;;;31.48;17.70;;;;;;;;;;6220757;23;20008;-96
2021/11/16 12:19:40;;;;;;;36.15;19.15;;;;;;;;;;6205889;23;19996;-96
2021/11/16 12:22:20;;;;;;;33.08;17.38;;;;;;;;;;6221231;23;20009;-96
2021/11/16 12:24:47;;;;;;;36.88;20.17;;;;;;;;;;6214274;23;20008;-96
2021/11/16 12:27:14;;;;;;;37.40;19.13;;;;;;;;;;6218203;23;20001;-96
2021/11/16 12:29:43;;;;;;;34.35;20.45;;;;;;;;;;6221026;23;20308;-96
2021/11/16 12:32:28;;;;;;;38.10;19.67;;;;;;;;;;6243517;23;19985;-96
2021/11/16 12:34:57;;;;;;;41.28;21.38;;;;;;;;;;6236745;23;20017;-96
2021/11/16 12:37:47;;;;;;;41.28;21.50;;;;;;;;;;6226830;23;20024;-96
2021/11/16 12:40:19;;;;;;;40.78;20.98;;;;;;;;;;6204336;23;20009;-96
2021/11/16 12:43:04;;;;;;;42.50;21.23;;;;;;;;;;6220818;23;20004;-96
2021/11/16 12:45:49;;;;;;;41.50;21.67;;;;;;;;;;6219353;23;20008;-96
2021/11/16 12:48:17;;;;;;;42.45;20.70;;;;;;;;;;6218877;23;20031;-96
2021/11/16 12:51:03;;;;;;;36.88;19.63;;;;;;;;;;6219404;23;20001;-96
2021/11/16 12:53:56;;;;;;;37.65;22.40;;;;;;;;;;6219479;23;20008;-96
2021/11/16 12:56:24;;;;;;;32.03;17.30;;;;;;;;;;6214854;23;20009;-96
2021/11/16 12:58:55;;;;;;;29.23;16.42;;;;;;;;;;6219654;23;20331;-96
2021/11/16 13:01:40;;;;;;;29.17;16.50;;;;;;;;;;6219688;23;20009;-96
2021/11/16 13:04:08;;;;;;;25.67;15.10;;;;;;;;;;6218873;23;20165;-96
2021/11/16 13:06:35;;;;;;;29.80;16.35;;;;;;;;;;6219554;23;20005;-96
2021/11/16 13:09:02;;;;;;;29.15;16.10;;;;;;;;;;6219626;23;20004;-96
2021/11/16 13:11:44;;;;;;;29.30;15.07;;;;;;;;;;6219807;23;20001;-96
2021/11/16 13:14:30;;;;;;;27.42;13.55;;;;;;;;;;6218108;23;20023;-96
2021/11/16 13:16:58;;;;;;;29.92;16.25;;;;;;;;;;6218973;23;20019;-96
2021/11/16 13:19:24;;;;;;;30.38;15.00;;;;;;;;;;6219301;23;20071;-96
2021/11/16 13:21:51;;;;;;;33.33;16.98;;;;;;;;;;6219719;23;20437;-96
2021/11/16 13:24:17;;;;;;;31.13;16.70;;;;;;;;;;6221952;23;20083;-95
2021/11/16 13:26:46;;;;;;;32.28;15.70;;;;;;;;;;6219626;23;20004;-96
2021/11/16 13:29:22;;;;;;;30.67;16.48;;;;;;;;;;6220973;23;20039;-96
2021/11/16 13:31:57;;;;;;;33.05;19.15;;;;;;;;;;6221693;23;20005;-96
2021/11/16 13:34:34;;;;;;;42.65;22.45;;;;;;;;;;6219999;23;20029;-96
2021/11/16 13:37:16;;;;;;;41.78;21.35;;;;;;;;;;6218920;23;20058;-96
2021/11/16 13:39:43;;;;;;;41.17;21.70;;;;;;;;;;6220278;23;20020;-94
2021/11/16 13:42:10;;;;;;;45.65;24.35;;;;;;;;;;6221710;23;20039;-96
2021/11/16 13:44:40;;;;;;;47.85;23.58;;;;;;;;;;6221427;23;20012;-95
2021/11/16 13:47:10;;;;;;;39.38;21.33;;;;;;;;;;6220294;23;20043;-96
2021/11/16 13:49:41;;;;;;;42.13;21.38;;;;;;;;;;6222563;23;20016;-96
2021/11/16 13:52:26;;;;;;;48.42;22.35;;;;;;;;;;6226402;23;20016;-96
2021/11/16 13:54:57;;;;;;;45.28;23.10;;;;;;;;;;6220831;23;20087;-93
2021/11/16 13:57:25;;;;;;;47.80;23.40;;;;;;;;;;6220851;23;20005;-94
2021/11/16 14:00:17;;;;;;;50.40;24.30;;;;;;;;;;6222397;23;20005;-96
2021/11/16 14:02:51;;;;;;;46.33;24.55;;;;;;;;;;6221159;23;20004;-94
2021/11/16 14:05:19;;;;;;;47.03;23.65;;;;;;;;;;6220033;23;20084;-94
2021/11/16 14:07:52;;;;;;;53.50;25.08;;;;;;;;;;6220527;23;20011;-94
2021/11/16 14:10:21;;;;;;;49.67;23.95;;;;;;;;;;6222058;23;20011;-96
2021/11/16 14:13:25;;;;;;;50.65;24.88;;;;;;;;;;6234210;23;20024;-96
2021/11/16 14:19:57;;;;;;;47.38;23.45;;;;;;;;;;6145782;23;20023;-96
2021/11/16 14:22:42;;;;;;;45.17;21.92;;;;;;;;;;6168085;23;20005;-95
2021/11/16 14:25:31;;;;;;;51.30;23.30;;;;;;;;;;6176603;23;20016;-96
2021/11/16 14:34:36;;;;;;;55.75;26.17;;;;;;;;;;6212956;22;20175;-95
2021/11/16 14:37:13;;;;;;;51.25;23.73;;;;;;;;;;6202496;23;20020;-95
2021/11/16 14:40:03;;;;;;;49.97;23.05;;;;;;;;;;6232615;23;20083;-96
2021/11/16 14:42:31;;;;;;;55.40;23.85;;;;;;;;;;6206462;23;20035;-92
2021/11/16 14:44:57;;;;;;;54.88;24.98;;;;;;;;;;6203996;23;20008;-95
2021/11/16 14:47:52;;;;;;;51.53;24.30;;;;;;;;;;6204493;23;20009;-95
2021/11/16 14:53:16;;;;;;;54.15;24.42;;;;;;;;;;6185894;23;20004;-96
2021/11/16 14:55:42;;;;;;;62.88;25.95;;;;;;;;;;6206335;23;20517;-93
2021/11/16 15:48:34;;;;;;;63.92;27.58;;;;;;;;;;6228104;22;20059;-95
2021/11/16 15:59:49;;;;;;;51.45;23.60;;;;;;;;;;6229904;22;20016;-96
2021/11/16 16:02:26;;;;;;;59.03;22.63;;;;;;;;;;6240961;23;19989;-96
2021/11/16 16:08:21;;;;;;;64.72;26.42;;;;;;;;;;6099300;23;20006;-94
2021/11/16 16:10:48;;;;;;;64.40;26.77;;;;;;;;;;6081346;23;20051;-94
2021/11/16 16:13:16;;;;;;;71.25;28.00;;;;;;;;;;6175048;23;19996;-91
2021/11/16 16:15:47;;;;;;;61.20;26.83;;;;;;;;;;6214819;23;20020;-96
2021/11/16 16:18:34;;;;;;;61.28;26.67;;;;;;;;;;6233201;23;20044;-94
2021/11/16 16:21:20;;;;;;;61.95;26.88;;;;;;;;;;6205428;23;20009;-95
2021/11/16 16:23:52;;;;;;;67.00;28.38;;;;;;;;;;6203658;23;20013;-95
2021/11/16 16:26:39;;;;;;;58.00;26.17;;;;;;;;;;6204147;23;20040;-96
2021/11/16 16:29:27;;;;;;;57.50;26.25;;;;;;;;;;6206130;23;20065;-95
2021/11/16 16:32:34;;;;;;;66.45;25.77;;;;;;;;;;6230375;23;20087;-96
2021/11/16 16:35:03;;;;;;;66.43;28.38;;;;;;;;;;6221299;23;20016;-96
2021/11/16 16:37:48;;;;;;;64.38;27.58;;;;;;;;;;6205822;23;20005;-96
2021/11/16 16:40:39;;;;;;;68.00;28.08;;;;;;;;;;6231010;23;20004;-96
2021/11/16 16:43:32;;;;;;;66.32;29.45;;;;;;;;;;6204843;23;20005;-96
2021/11/16 16:46:47;;;;;;;;;;;;;;;;;;;;;
2021/11/16 16:49:34;;;;;;;60.95;27.33;;;;;;;;;;6114192;23;20010;-96
2021/11/16 16:52:19;;;;;;;63.80;27.23;;;;;;;;;;6097494;23;20014;-94
2021/11/16 16:54:54;;;;;;;57.90;27.13;;;;;;;;;;6106786;23;20014;-95
2021/11/16 16:58:04;;;;;;;65.90;28.40;;;;;;;;;;6117191;23;20001;-95
2021/11/16 17:06:15;;;;;;;77.13;30.92;;;;;;;;;;6227004;22;19915;-96
2021/11/16 17:08:43;;;;;;;65.68;26.95;;;;;;;;;;6200750;23;20004;-96
2021/11/16 17:11:24;;;;;;;;;;;;;;;;;;;;;
2021/11/16 17:14:02;;;;;;;57.25;25.95;;;;;;;;;;6237470;23;20005;-92
2021/11/16 17:16:29;;;;;;;61.13;26.38;;;;;;;;;;6210474;22;20008;-91
2021/11/16 17:19:25;;;;;;;56.28;25.85;;;;;;;;;;6189319;23;20004;-94
2021/11/16 17:24:59;;;;;;;49.20;21.98;;;;;;;;;;6242908;23;20035;-95
2021/11/16 17:30:49;;;;;;;54.90;24.48;;;;;;;;;;6235213;22;20024;-96
2021/11/16 17:33:27;;;;;;;49.38;20.48;;;;;;;;;;6176802;23;20090;-95
2021/11/16 17:36:16;;;;;;;41.38;18.45;;;;;;;;;;6204200;23;20400;-95
2021/11/16 17:38:52;;;;;;;45.05;20.25;;;;;;;;;;6211213;23;20012;-90
2021/11/16 17:44:50;;;;;;;41.42;17.90;;;;;;;;;;6208476;23;20005;-95
2021/11/16 17:47:19;;;;;;;48.83;18.52;;;;;;;;;;6240240;22;20013;-95
2021/11/16 17:49:48;;;;;;;37.85;17.70;;;;;;;;;;6212761;23;20007;-95
2021/11/16 17:55:33;;;;;;;38.65;16.98;;;;;;;;;;6205789;23;20031;-96
2021/11/16 17:58:03;;;;;;;39.20;16.83;;;;;;;;;;6228113;23;20005;-92
2021/11/16 18:00:31;;;;;;;43.95;18.10;;;;;;;;;;6197848;23;20009;-90
2021/11/16 18:03:05;;;;;;;45.17;19.33;;;;;;;;;;6201533;23;20035;-95
2021/11/16 18:08:05;;;;;;;48.65;21.38;;;;;;;;;;6233784;22;20030;-96
2021/11/16 18:10:53;;;;;;;44.65;18.88;;;;;;;;;;6168319;23;19989;-88
2021/11/16 18:13:36;;;;;;;;;;;;;;;;;;;;;
2021/11/16 18:16:20;;;;;;;52.55;21.02;;;;;;;;;;6218189;23;20390;-92
2021/11/16 18:19:07;;;;;;;54.70;20.88;;;;;;;;;;6212454;23;20060;-94
2021/11/16 18:21:35;;;;;;;44.75;20.35;;;;;;;;;;6232179;23;20000;-95
2021/11/16 18:24:03;;;;;;;55.15;23.35;;;;;;;;;;6196223;23;20027;-95
2021/11/16 18:26:32;;;;;;;53.30;20.80;;;;;;;;;;6196069;23;20076;-93
2021/11/16 18:28:59;;;;;;;54.42;21.92;;;;;;;;;;6190893;23;20013;-93
2021/11/16 18:31:33;;;;;;;53.33;22.50;;;;;;;;;;6167242;23;20439;-95
2021/11/16 18:34:02;;;;;;;55.47;21.60;;;;;;;;;;6191195;23;20005;-96
2021/11/16 18:36:47;;;;;;;52.35;20.52;;;;;;;;;;6194118;23;20017;-96
2021/11/16 18:39:43;;;;;;;54.72;21.60;;;;;;;;;;6195732;23;20325;-96
2021/11/16 18:42:58;;;;;;;45.00;18.02;;;;;;;;;;6197978;23;20059;-96
2021/11/16 18:45:30;;;;;;;38.22;15.45;;;;;;;;;;6194108;23;20031;-96
2021/11/16 18:48:24;;;;;;;45.53;18.33;;;;;;;;;;6188500;23;20013;-96
2021/11/16 18:51:05;;;;;;;37.47;15.25;;;;;;;;;;6200729;23;20009;-96
2021/11/16 18:53:33;;;;;;;43.88;19.75;;;;;;;;;;6198543;23;20015;-95
2021/11/16 18:56:06;;;;;;;45.42;18.33;;;;;;;;;;6199808;23;20023;-96
2021/11/16 18:59:04;;;;;;;50.10;20.58;;;;;;;;;;6198182;23;20036;-96
2021/11/16 19:01:35;;;;;;;42.95;18.52;;;;;;;;;;6197778;23;20415;-96
2021/11/16 19:04:22;;;;;;;54.90;21.50;;;;;;;;;;6199690;23;20056;-96
2021/11/16 19:07:03;;;;;;;50.58;21.38;;;;;;;;;;6203830;23;20005;-96
2021/11/16 19:09:31;;;;;;;53.72;21.05;;;;;;;;;;6194379;23;20008;-96
2021/11/16 19:11:59;;;;;;;64.03;26.17;;;;;;;;;;6170638;23;20072;-96
2021/11/16 19:14:29;;;;;;;60.90;25.85;;;;;;;;;;6167506;23;20009;-96
2021/11/16 19:17:19;;;;;;;55.90;23.33;;;;;;;;;;6192814;23;20009;-96
2021/11/16 19:19:52;;;;;;;59.42;23.13;;;;;;;;;;6192439;23;20001;-96
2021/11/16 19:22:23;;;;;;;59.03;25.58;;;;;;;;;;6196176;23;20111;-96
2021/11/16 19:25:14;;;;;;;61.83;25.73;;;;;;;;;;6188276;23;20004;-95
2021/11/16 19:30:25;;;;;;;66.82;28.35;;;;;;;;;;6185405;23;20378;-94
2021/11/16 19:32:52;;;;;;;54.90;25.55;;;;;;;;;;6186608;23;20005;-94
2021/11/16 19:35:25;;;;;;;56.60;23.35;;;;;;;;;;6185941;23;20017;-95
2021/11/16 19:37:53;;;;;;;57.45;23.85;;;;;;;;;;6186871;23;20012;-95
2021/11/16 19:40:28;;;;;;;55.22;22.77;;;;;;;;;;6189762;23;20296;-96
2021/11/16 19:42:56;;;;;;;50.97;22.80;;;;;;;;;;6189996;23;20025;-96
2021/11/16 19:45:25;;;;;;;53.47;23.15;;;;;;;;;;6193597;23;20363;-95
2021/11/16 19:47:51;;;;;;;62.58;26.38;;;;;;;;;;6166130;23;20009;-95
2021/11/16 19:50:18;;;;;;;87.50;29.08;;;;;;;;;;6188988;23;20009;-94
2021/11/16 19:52:46;;;;;;;95.55;35.47;;;;;;;;;;6187738;23;20493;-95
2021/11/16 19:55:12;;;;;;;85.40;34.92;;;;;;;;;;6189872;23;20075;-94
2021/11/16 19:57:39;;;;;;;78.65;32.60;;;;;;;;;;6189650;23;20012;-95
2021/11/16 20:00:08;;;;;;;65.35;30.38;;;;;;;;;;6165774;23;20096;-94
2021/11/16 20:02:35;;;;;;;87.60;30.95;;;;;;;;;;6191349;23;20005;-95
2021/11/16 20:05:05;;;;;;;75.15;28.63;;;;;;;;;;6193715;23;20159;-95
2021/11/16 20:07:34;;;;;;;68.15;30.52;;;;;;;;;;6192341;23;20051;-93
2021/11/16 20:10:02;;;;;;;78.70;29.50;;;;;;;;;;6190020;23;20029;-94
2021/11/16 20:12:29;;;;;;;72.53;30.25;;;;;;;;;;6201304;23;20005;-91
2021/11/16 20:14:57;;;;;;;69.75;26.98;;;;;;;;;;6213560;23;20001;-85
2021/11/16 20:17:23;;;;;;;62.40;24.75;;;;;;;;;;6209548;23;20013;-93
2021/11/16 20:19:50;;;;;;;63.75;26.30;;;;;;;;;;6193235;23;20009;-94
2021/11/16 20:22:17;;;;;;;79.57;27.88;;;;;;;;;;6194684;23;20052;-94
2021/11/16 20:24:44;;;;;;;73.38;27.90;;;;;;;;;;6188985;23;20009;-94
2021/11/16 20:27:11;;;;;;;71.97;27.77;;;;;;;;;;6188300;23;20096;-93
2021/11/16 20:29:40;;;;;;;85.30;31.02;;;;;;;;;;6187486;23;20040;-92
2021/11/16 20:32:12;;;;;;;81.30;30.95;;;;;;;;;;6187954;23;20426;-94
2021/11/16 20:37:13;;;;;;;65.38;24.70;;;;;;;;;;6199496;23;20013;-93
2021/11/16 20:39:52;;;;;;;61.60;24.60;;;;;;;;;;6188033;23;20001;-94
2021/11/16 20:45:08;;;;;;;55.80;23.63;;;;;;;;;;6190833;23;20009;-94
2021/11/16 21:01:20;;;;;;;50.33;22.40;;;;;;;;;;6188982;23;20056;-95
2021/11/16 21:03:46;;;;;;;56.85;23.55;;;;;;;;;;6188448;23;20426;-94
2021/11/16 21:06:12;;;;;;;60.67;24.58;;;;;;;;;;6187398;23;20438;-94
2021/11/16 21:08:39;;;;;;;61.30;24.65;;;;;;;;;;6188591;23;20001;-94
2021/11/16 21:11:05;;;;;;;65.80;25.90;;;;;;;;;;6187649;23;20009;-90
2021/11/16 21:13:32;;;;;;;77.07;28.00;;;;;;;;;;6190277;23;20056;-91
2021/11/16 21:15:58;;;;;;;70.88;26.20;;;;;;;;;;6213547;23;20021;-90
2021/11/16 21:18:25;;;;;;;63.63;26.42;;;;;;;;;;6207732;23;20033;-91
2021/11/16 21:20:54;;;;;;;65.57;26.45;;;;;;;;;;6194217;23;20032;-91
2021/11/16 21:23:20;;;;;;;62.72;25.40;;;;;;;;;;6187579;23;20092;-92
2021/11/16 21:25:49;;;;;;;56.13;22.13;;;;;;;;;;6187124;23;20014;-92
2021/11/16 21:28:17;;;;;;;56.95;23.85;;;;;;;;;;6187102;23;20006;-93
2021/11/16 21:30:48;;;;;;;65.03;26.58;;;;;;;;;;6186643;23;20032;-93
2021/11/16 21:33:15;;;;;;;63.15;22.48;;;;;;;;;;6187050;23;20088;-92
2021/11/16 21:35:41;;;;;;;59.63;23.58;;;;;;;;;;6186496;23;20013;-92
2021/11/16 21:38:07;;;;;;;58.22;23.17;;;;;;;;;;6186685;23;20427;-93
2021/11/16 21:40:34;;;;;;;66.82;24.85;;;;;;;;;;6186675;23;20013;-93
2021/11/16 21:43:01;;;;;;;80.60;27.40;;;;;;;;;;6186636;23;20005;-92
2021/11/16 21:45:27;;;;;;;70.97;24.77;;;;;;;;;;6186997;23;20008;-93
2021/11/16 21:47:54;;;;;;;78.72;30.05;;;;;;;;;;6187279;23;20005;-93
2021/11/16 21:50:20;;;;;;;71.28;27.63;;;;;;;;;;6186686;23;20005;-92
2021/11/16 21:52:46;;;;;;;64.78;25.50;;;;;;;;;;6186774;23;20001;-92
2021/11/16 21:55:14;;;;;;;69.60;27.83;;;;;;;;;;6186588;23;20439;-91
2021/11/16 21:57:40;;;;;;;65.15;26.30;;;;;;;;;;6186878;23;20092;-91
2021/11/16 22:00:07;;;;;;;60.53;25.05;;;;;;;;;;6186545;23;20029;-92
2021/11/16 22:02:33;;;;;;;76.05;27.48;;;;;;;;;;6186665;23;20115;-91
2021/11/16 22:05:06;;;;;;;66.70;25.98;;;;;;;;;;6187469;23;20001;-93
2021/11/16 22:10:10;;;;;;;62.45;25.45;;;;;;;;;;6197730;23;20005;-92
2021/11/16 22:12:37;;;;;;;62.67;25.15;;;;;;;;;;6186409;23;20088;-92
2021/11/16 22:15:05;;;;;;;56.53;23.13;;;;;;;;;;6185703;23;20016;-92
2021/11/16 22:17:32;;;;;;;56.97;23.55;;;;;;;;;;6186410;23;20084;-92
2021/11/16 22:19:59;;;;;;;54.70;22.95;;;;;;;;;;6186731;23;20029;-95
2021/11/16 22:22:26;;;;;;;52.80;21.88;;;;;;;;;;6186605;23;20005;-94
2021/11/16 22:24:52;;;;;;;60.78;26.30;;;;;;;;;;6187044;23;20040;-89
2021/11/16 22:27:19;;;;;;;62.42;25.95;;;;;;;;;;6186247;23;20434;-91
2021/11/16 22:29:49;;;;;;;61.03;25.90;;;;;;;;;;6185982;23;20017;-88
2021/11/16 22:32:19;;;;;;;58.42;25.20;;;;;;;;;;6186320;23;20371;-89
2021/11/16 22:34:49;;;;;;;71.70;24.10;;;;;;;;;;6186497;23;20017;-87
2021/11/16 22:37:15;;;;;;;64.80;25.00;;;;;;;;;;6186340;23;20005;-88
2021/11/16 22:39:41;;;;;;;77.65;26.17;;;;;;;;;;6186435;23;20426;-89
2021/11/16 22:42:08;;;;;;;72.90;25.23;;;;;;;;;;6186653;23;20031;-89
2021/11/16 22:44:35;;;;;;;69.13;25.75;;;;;;;;;;6186376;23;20008;-93
2021/11/16 22:47:03;;;;;;;70.15;26.52;;;;;;;;;;6187197;23;20008;-88
2021/11/16 22:49:29;;;;;;;64.05;23.55;;;;;;;;;;6186438;23;20454;-90
2021/11/16 22:51:56;;;;;;;61.65;24.50;;;;;;;;;;6186101;23;20001;-91
2021/11/16 22:54:22;;;;;;;67.78;24.42;;;;;;;;;;6186141;23;20013;-90
2021/11/16 22:56:48;;;;;;;58.25;22.95;;;;;;;;;;6186169;23;20032;-91
2021/11/16 22:59:36;;;;;;;64.45;22.58;;;;;;;;;;6185975;23;20001;-89
